Time;durP1;ratioP1;P1;durP2;ratioP2;P2;SDS_P1;SDS_P2;PMS_P1;PMS_P2;Temp;Humidity;BMP_temperature;BMP_pressure;BME280_temperature;BME280_humidity;BME280_pressure;Samples;Min_cycle;Max_cycle;Signal;HPM_P1;HPM_P2
2021/12/10 00:01:52;;;;;;;171.50;100.18;;;;;;;-0.41;84.80;95172.39;1772661;80;21019;-80
2021/12/10 00:04:22;;;;;;;169.47;92.37;;;;;;;-0.41;84.84;95166.82;1764750;80;21102;-80
2021/12/10 00:06:55;;;;;;;164.43;96.32;;;;;;;-0.44;84.79;95169.66;1761230;80;21359;-80
2021/12/10 00:09:29;;;;;;;157.12;90.67;;;;;;;-0.43;84.91;95168.72;1766411;80;21930;-80
2021/12/10 00:12:06;;;;;;;147.80;86.22;;;;;;;-0.42;84.84;95161.39;1774378;80;20999;-80
2021/12/10 00:14:34;;;;;;;164.03;89.70;;;;;;;-0.43;84.82;95152.60;1770908;80;21019;-81
2021/12/10 00:17:01;;;;;;;133.70;75.65;;;;;;;-0.43;84.94;95150.05;1760731;80;21105;-80
2021/12/10 00:19:38;;;;;;;124.30;67.55;;;;;;;-0.42;84.94;95141.45;1768329;80;21090;-80
2021/12/10 00:22:09;;;;;;;111.03;62.25;;;;;;;-0.48;84.88;95136.45;1776608;80;21079;-80
2021/12/10 00:24:38;;;;;;;113.45;61.20;;;;;;;-0.51;84.95;95135.44;1781119;80;21439;-80
2021/12/10 00:27:06;;;;;;;131.43;69.10;;;;;;;-0.51;85.11;95135.44;1764949;80;21094;-80
2021/12/10 00:29:33;;;;;;;117.35;61.45;;;;;;;-0.51;85.11;95138.47;1779968;80;21390;-80
2021/12/10 00:32:05;;;;;;;115.95;65.57;;;;;;;-0.50;85.23;95143.42;1761395;80;21065;-80
2021/12/10 00:34:36;;;;;;;122.10;64.87;;;;;;;-0.53;85.09;95154.40;1773153;80;21022;-80
2021/12/10 00:37:07;;;;;;;124.27;68.47;;;;;;;-0.59;85.05;95157.06;1770707;80;21070;-81
2021/12/10 00:39:41;;;;;;;118.42;61.92;;;;;;;-0.61;85.21;95157.68;1775998;80;21015;-81
2021/12/10 00:42:12;;;;;;;103.02;59.27;;;;;;;-0.59;85.34;95162.64;1757021;80;21023;-81
2021/12/10 00:44:38;;;;;;;107.80;57.08;;;;;;;-0.62;85.36;95159.43;1759974;80;21394;-81
2021/12/10 00:47:04;;;;;;;101.92;58.38;;;;;;;-0.60;85.49;95161.84;1765464;80;21034;-81
2021/12/10 00:49:31;;;;;;;108.15;61.65;;;;;;;-0.58;85.54;95157.86;1760160;80;21074;-81
2021/12/10 00:51:57;;;;;;;108.15;60.10;;;;;;;-0.56;85.55;95156.77;1765842;80;21390;-81
2021/12/10 00:54:23;;;;;;;103.70;57.43;;;;;;;-0.53;85.66;95145.47;1781183;80;21055;-81
2021/12/10 00:56:48;;;;;;;101.22;57.25;;;;;;;-0.48;85.77;95145.39;1775764;80;21039;-81
2021/12/10 00:59:14;;;;;;;108.55;61.50;;;;;;;-0.45;85.66;95132.81;1762826;80;21042;-81
2021/12/10 01:01:41;;;;;;;108.32;59.67;;;;;;;-0.42;85.54;95142.72;1751867;81;21023;-81
2021/12/10 01:04:15;;;;;;;101.20;57.43;;;;;;;-0.42;85.50;95146.08;1753870;80;21039;-81
2021/12/10 01:06:44;;;;;;;107.90;60.38;;;;;;;-0.44;85.11;95147.17;1754950;80;21122;-81
2021/12/10 01:09:15;;;;;;;108.25;60.58;;;;;;;-0.48;85.20;95155.59;1764247;80;21074;-81
2021/12/10 01:11:50;;;;;;;116.28;61.83;;;;;;;-0.46;85.29;95154.97;1780803;80;21075;-81
2021/12/10 01:14:32;;;;;;;108.15;59.05;;;;;;;-0.49;85.38;95152.72;1775737;80;21469;-81
2021/12/10 01:25:23;;;;;;;125.50;69.50;;;;;;;-0.40;85.28;95143.38;1780964;80;21055;-81
2021/12/10 01:27:40;;;;;;;118.82;64.20;;;;;;;-0.38;85.51;95144.03;1764886;80;21111;-81
2021/12/10 01:30:20;;;;;;;122.78;70.40;;;;;;;-0.35;85.52;95139.91;1760522;80;21047;-82
2021/12/10 01:32:55;;;;;;;121.82;64.50;;;;;;;-0.34;85.54;95147.41;1760842;80;21437;-80
2021/12/10 01:35:26;;;;;;;128.93;69.30;;;;;;;-0.32;85.42;95146.83;1768335;80;21445;-81
2021/12/10 01:37:53;;;;;;;124.12;68.47;;;;;;;-0.33;85.39;95134.18;1742341;81;21024;-81
2021/12/10 01:40:25;;;;;;;125.53;70.78;;;;;;;-0.33;85.27;95130.34;1767567;80;20979;-81
2021/12/10 01:42:49;;;;;;;126.67;70.72;;;;;;;-0.36;85.21;95128.89;1777933;80;21083;-81
2021/12/10 01:45:25;;;;;;;124.82;72.22;;;;;;;-0.40;85.23;95130.62;1778817;80;21397;-80
2021/12/10 01:48:06;;;;;;;130.32;71.50;;;;;;;-0.42;85.27;95135.87;1778040;80;21027;-80
2021/12/10 01:50:32;;;;;;;131.32;72.92;;;;;;;-0.44;85.19;95139.52;1757738;80;21075;-81
2021/12/10 01:53:01;;;;;;;127.50;69.17;;;;;;;-0.45;85.25;95130.26;1763594;80;21044;-81
2021/12/10 01:55:28;;;;;;;119.45;69.32;;;;;;;-0.43;85.33;95127.08;1747910;80;21019;-80
2021/12/10 01:57:55;;;;;;;122.82;70.95;;;;;;;-0.47;85.21;95127.85;1747885;80;21023;-81
2021/12/10 02:00:25;;;;;;;123.22;69.82;;;;;;;-0.50;85.25;95132.42;1775824;80;20996;-80
2021/12/10 02:02:51;;;;;;;116.73;66.82;;;;;;;-0.49;85.45;95130.19;1779238;80;20992;-81
2021/12/10 02:05:17;;;;;;;124.65;67.17;;;;;;;-0.52;85.52;95126.19;1777917;80;21051;-80
2021/12/10 02:07:44;;;;;;;119.85;67.05;;;;;;;-0.49;85.55;95126.37;1728158;81;20968;-81
2021/12/10 02:10:10;;;;;;;120.17;67.00;;;;;;;-0.48;85.59;95130.55;1778375;80;21027;-81
2021/12/10 02:12:36;;;;;;;103.47;59.13;;;;;;;-0.45;85.66;95122.60;1765904;80;21039;-81
2021/12/10 02:15:02;;;;;;;108.95;60.28;;;;;;;-0.44;85.63;95117.83;1769410;80;20995;-81
2021/12/10 02:17:34;;;;;;;101.00;58.28;;;;;;;-0.41;85.67;95110.67;1779535;80;21035;-81
2021/12/10 02:20:05;;;;;;;100.33;59.45;;;;;;;-0.42;85.74;95107.80;1773776;80;21084;-81
2021/12/10 02:22:31;;;;;;;100.07;59.63;;;;;;;-0.38;85.70;95112.12;1778958;80;20988;-81
2021/12/10 02:24:57;;;;;;;96.45;56.55;;;;;;;-0.36;85.55;95105.92;1759237;80;21035;-81
2021/12/10 02:27:22;;;;;;;98.05;55.05;;;;;;;-0.32;85.59;95108.54;1763128;80;20999;-81
2021/12/10 02:29:48;;;;;;;87.37;50.88;;;;;;;-0.32;85.51;95109.81;1779629;80;21019;-81
2021/12/10 02:32:14;;;;;;;90.65;53.20;;;;;;;-0.33;85.49;95096.73;1765189;79;20972;-81
2021/12/10 02:34:41;;;;;;;85.87;49.00;;;;;;;-0.29;85.58;95083.67;1760475;80;21379;-81
2021/12/10 02:37:07;;;;;;;80.77;47.53;;;;;;;-0.26;85.71;95088.00;1765639;80;21003;-81
2021/12/10 02:39:33;;;;;;;79.70;47.95;;;;;;;-0.21;85.65;95098.56;1773343;80;21014;-81
2021/12/10 02:41:58;;;;;;;84.58;51.33;;;;;;;-0.19;85.57;95102.24;1759192;80;21374;-81
2021/12/10 02:44:27;;;;;;;92.82;51.10;;;;;;;-0.17;85.69;95092.20;1756815;81;21007;-81
2021/12/10 02:46:54;;;;;;;91.42;52.93;;;;;;;-0.18;85.66;95093.16;1780807;80;20996;-81
2021/12/10 02:49:20;;;;;;;99.40;57.33;;;;;;;-0.19;85.45;95078.79;1770451;80;21008;-81
2021/12/10 02:51:46;;;;;;;105.40;61.30;;;;;;;-0.18;85.53;95072.73;1750791;80;21370;-81
2021/12/10 02:54:14;;;;;;;94.32;55.63;;;;;;;-0.15;85.57;95076.77;1764714;80;21007;-81
2021/12/10 02:56:40;;;;;;;92.05;52.35;;;;;;;-0.14;85.69;95081.72;1780290;80;21405;-81
2021/12/10 02:59:06;;;;;;;89.58;50.30;;;;;;;-0.16;85.49;95085.37;1780936;80;20992;-81
2021/12/10 03:01:44;;;;;;;81.65;49.77;;;;;;;-0.18;85.41;95085.50;1780610;80;21035;-81
2021/12/10 03:04:11;;;;;;;74.20;46.40;;;;;;;-0.17;85.39;95079.44;1773913;80;21386;-81
2021/12/10 03:06:43;;;;;;;65.95;39.48;;;;;;;-0.17;85.56;95092.20;1758103;80;20988;-81
2021/12/10 03:09:09;;;;;;;65.62;39.25;;;;;;;-0.16;85.74;95086.66;1780216;80;21420;-81
2021/12/10 03:11:36;;;;;;;70.03;39.55;;;;;;;-0.21;85.98;95081.97;1750834;80;21039;-81
2021/12/10 03:14:08;;;;;;;66.45;41.40;;;;;;;-0.22;86.16;95077.81;1770427;80;21078;-81
2021/12/10 03:16:33;;;;;;;70.73;42.80;;;;;;;-0.19;86.22;95078.79;1770937;80;21430;-81
2021/12/10 03:18:59;;;;;;;69.32;44.50;;;;;;;-0.12;86.30;95074.71;1759760;80;21138;-80
2021/12/10 03:21:25;;;;;;;67.17;39.67;;;;;;;-0.09;86.22;95079.52;1775749;80;21394;-81
2021/12/10 03:23:51;;;;;;;65.37;40.23;;;;;;;-0.09;86.31;95070.58;1759070;80;21015;-81
2021/12/10 03:26:20;;;;;;;70.65;39.80;;;;;;;-0.07;86.30;95071.23;1755484;80;21482;-80
2021/12/10 03:28:46;;;;;;;67.97;42.20;;;;;;;-0.03;86.28;95065.34;1754209;80;21004;-80
2021/12/10 03:31:12;;;;;;;64.97;37.88;;;;;;;0.00;86.12;95063.80;1765631;79;20983;-81
2021/12/10 03:33:39;;;;;;;62.83;38.25;;;;;;;-0.01;85.98;95062.16;1776785;80;21062;-80
2021/12/10 03:36:06;;;;;;;66.97;40.67;;;;;;;-0.05;85.80;95070.61;1754501;80;21016;-81
2021/12/10 03:38:33;;;;;;;64.90;39.98;;;;;;;-0.10;85.70;95063.88;1767249;80;21034;-81
2021/12/10 03:40:59;;;;;;;66.92;38.98;;;;;;;-0.13;85.64;95070.56;1743781;80;21046;-81
2021/12/10 03:43:25;;;;;;;71.40;42.33;;;;;;;-0.13;85.66;95077.42;1765112;80;21050;-81
2021/12/10 03:45:54;;;;;;;63.55;39.65;;;;;;;-0.21;85.27;95081.97;1776199;80;21030;-81
2021/12/10 03:48:24;;;;;;;65.75;37.50;;;;;;;-0.30;85.24;95086.70;1757190;80;21007;-81
2021/12/10 03:50:50;;;;;;;64.92;38.95;;;;;;;-0.39;85.10;95083.25;1781337;80;21448;-81
2021/12/10 03:53:16;;;;;;;55.80;33.30;;;;;;;-0.46;85.14;95091.17;1757923;79;21141;-81
2021/12/10 03:55:42;;;;;;;72.05;41.40;;;;;;;-0.52;85.53;95092.22;1770520;80;21067;-81
2021/12/10 03:58:08;;;;;;;66.25;41.30;;;;;;;-0.54;85.82;95096.19;1749645;80;20991;-81
2021/12/10 04:00:40;;;;;;;76.20;43.60;;;;;;;-0.53;85.84;95101.63;1749671;80;21042;-81
2021/12/10 04:03:06;;;;;;;60.92;35.85;;;;;;;-0.53;85.92;95108.00;1764562;80;21027;-80
2021/12/10 04:05:32;;;;;;;60.12;36.00;;;;;;;-0.51;85.92;95111.20;1756740;80;21358;-80
2021/12/10 04:07:57;;;;;;;53.55;32.58;;;;;;;-0.46;85.95;95116.70;1768743;80;21035;-81
2021/12/10 04:10:23;;;;;;;55.67;33.15;;;;;;;-0.41;86.11;95117.05;1756127;80;21029;-81
2021/12/10 04:12:49;;;;;;;48.58;30.43;;;;;;;-0.39;86.00;95110.53;1773400;80;20975;-80
2021/12/10 04:15:18;;;;;;;47.93;31.40;;;;;;;-0.37;86.06;95115.81;1775777;79;21406;-81
2021/12/10 04:17:44;;;;;;;54.42;30.48;;;;;;;-0.33;86.13;95114.59;1776663;80;20984;-81
2021/12/10 04:20:11;;;;;;;51.92;31.60;;;;;;;-0.28;86.26;95112.88;1765595;80;21093;-81
2021/12/10 04:22:36;;;;;;;54.27;29.75;;;;;;;-0.28;86.25;95112.88;1760116;80;21409;-80
2021/12/10 04:25:06;;;;;;;46.55;27.50;;;;;;;-0.26;86.19;95112.25;1753301;80;20991;-81
2021/12/10 04:27:32;;;;;;;46.75;28.85;;;;;;;-0.24;86.12;95109.07;1781154;80;21489;-81
2021/12/10 04:29:58;;;;;;;45.40;27.42;;;;;;;-0.21;86.11;95106.69;1736100;80;20968;-81
2021/12/10 04:32:26;;;;;;;51.90;30.92;;;;;;;-0.21;86.04;95107.49;1770574;80;21335;-81
2021/12/10 04:34:51;;;;;;;51.88;31.70;;;;;;;-0.23;86.10;95106.05;1755167;80;21019;-81
2021/12/10 04:37:17;;;;;;;51.13;28.92;;;;;;;-0.22;86.26;95107.17;1774839;80;21035;-81
2021/12/10 04:39:47;;;;;;;46.83;31.05;;;;;;;-0.20;86.21;95101.91;1763182;79;21382;-81
2021/12/10 04:42:20;;;;;;;46.70;28.85;;;;;;;-0.19;86.11;95103.04;1775893;80;21343;-81
2021/12/10 04:44:46;;;;;;;54.83;31.05;;;;;;;-0.18;86.09;95105.12;1760763;80;21481;-81
2021/12/10 04:47:12;;;;;;;59.63;34.05;;;;;;;-0.19;86.12;95103.52;1764040;80;20972;-81
2021/12/10 04:49:38;;;;;;;57.27;32.75;;;;;;;-0.24;85.99;95111.62;1767785;80;21042;-81
2021/12/10 04:52:04;;;;;;;52.53;30.95;;;;;;;-0.27;85.92;95115.75;1753238;80;21004;-81
2021/12/10 04:54:30;;;;;;;59.98;35.08;;;;;;;-0.29;85.88;95120.20;1754981;80;21024;-81
2021/12/10 04:56:58;;;;;;;53.13;34.80;;;;;;;-0.30;85.93;95110.94;1764955;80;22339;-81
2021/12/10 04:59:25;;;;;;;54.93;32.45;;;;;;;-0.33;85.78;95110.77;1755550;80;21061;-81
2021/12/10 05:01:54;;;;;;;52.70;30.10;;;;;;;-0.37;85.74;95115.00;1763599;80;21032;-81
2021/12/10 05:04:19;;;;;;;50.88;29.87;;;;;;;-0.40;85.85;95111.00;1774946;80;21027;-81
2021/12/10 05:06:45;;;;;;;50.10;29.82;;;;;;;-0.40;85.89;95108.92;1778983;80;20995;-80
2021/12/10 05:09:13;;;;;;;49.83;30.15;;;;;;;-0.39;86.06;95109.25;1773117;80;21016;-80
2021/12/10 05:11:39;;;;;;;43.45;26.33;;;;;;;-0.35;86.10;95106.73;1760352;80;21007;-81
2021/12/10 05:14:05;;;;;;;44.48;27.98;;;;;;;-0.34;85.93;95112.16;1778695;80;20992;-81
2021/12/10 05:16:37;;;;;;;38.40;25.05;;;;;;;-0.36;85.89;95105.13;1758926;80;21063;-81
2021/12/10 05:19:04;;;;;;;41.37;25.72;;;;;;;-0.37;85.81;95104.80;1774369;80;21418;-81
2021/12/10 05:21:32;;;;;;;43.75;25.68;;;;;;;-0.40;85.80;95102.55;1779605;80;21011;-81
2021/12/10 05:23:59;;;;;;;37.38;23.05;;;;;;;-0.42;85.79;95097.59;1769082;80;21058;-81
2021/12/10 05:26:25;;;;;;;34.10;21.45;;;;;;;-0.40;85.91;95103.81;1780733;80;21091;-81
2021/12/10 05:28:51;;;;;;;32.98;20.52;;;;;;;-0.41;86.04;95099.66;1779599;80;21095;-81
2021/12/10 05:31:17;;;;;;;30.30;19.07;;;;;;;-0.44;86.23;95091.03;1763778;80;21039;-81
2021/12/10 05:33:42;;;;;;;24.30;16.60;;;;;;;-0.38;86.18;95092.98;1765509;80;20956;-81
2021/12/10 05:36:08;;;;;;;25.60;17.73;;;;;;;-0.38;86.22;95084.05;1773764;80;21082;-82
2021/12/10 05:38:34;;;;;;;25.85;15.75;;;;;;;-0.37;86.46;95083.11;1779865;80;21371;-81
2021/12/10 05:41:01;;;;;;;27.40;17.77;;;;;;;-0.37;86.61;95082.63;1760420;80;21011;-81
2021/12/10 05:43:27;;;;;;;23.98;16.23;;;;;;;-0.30;86.83;95075.20;1768481;80;21038;-81
2021/12/10 05:45:52;;;;;;;26.33;19.73;;;;;;;-0.28;86.56;95075.06;1778894;80;21438;-81
2021/12/10 05:48:19;;;;;;;26.05;19.15;;;;;;;-0.30;86.49;95080.31;1779908;80;21445;-81
2021/12/10 05:50:46;;;;;;;26.35;19.02;;;;;;;-0.31;86.39;95079.98;1779705;80;20973;-81
2021/12/10 05:53:12;;;;;;;31.52;20.08;;;;;;;-0.33;86.31;95083.13;1753620;80;21087;-81
2021/12/10 05:55:39;;;;;;;30.12;20.45;;;;;;;-0.34;86.12;95085.36;1748440;80;21056;-81
2021/12/10 05:58:05;;;;;;;49.53;30.80;;;;;;;-0.35;85.94;95090.14;1758447;80;20960;-81
2021/12/10 06:00:36;;;;;;;45.67;29.27;;;;;;;-0.45;85.60;95090.23;1770783;80;21106;-81
2021/12/10 06:03:02;;;;;;;38.85;25.30;;;;;;;-0.52;85.62;95097.31;1768717;79;21099;-81
2021/12/10 06:05:28;;;;;;;46.53;30.00;;;;;;;-0.59;85.44;95099.66;1779670;80;21031;-81
2021/12/10 06:07:54;;;;;;;48.52;30.08;;;;;;;-0.63;85.60;95093.25;1774554;80;21039;-81
2021/12/10 06:10:21;;;;;;;39.08;25.90;;;;;;;-0.67;85.33;95092.71;1758167;80;21047;-81
2021/12/10 06:12:47;;;;;;;44.77;25.88;;;;;;;-0.75;85.09;95097.74;1774935;80;22077;-81
2021/12/10 06:15:14;;;;;;;32.25;20.72;;;;;;;-0.80;85.07;95088.45;1768933;80;20992;-81
2021/12/10 06:17:40;;;;;;;34.67;21.87;;;;;;;-0.89;84.90;95087.22;1740501;81;21415;-81
2021/12/10 06:20:09;;;;;;;47.03;26.95;;;;;;;-1.00;85.05;95094.59;1771842;80;21015;-81
2021/12/10 06:22:35;;;;;;;39.83;27.20;;;;;;;-1.04;85.54;95099.64;1778472;80;21084;-81
2021/12/10 06:25:01;;;;;;;27.52;17.57;;;;;;;-1.06;85.72;95092.14;1779279;79;21051;-81
2021/12/10 06:27:27;;;;;;;23.05;14.95;;;;;;;-1.05;86.11;95097.56;1751245;80;20991;-80
2021/12/10 06:29:53;;;;;;;24.85;16.20;;;;;;;-1.03;86.07;95105.07;1769009;80;21016;-81
2021/12/10 06:32:19;;;;;;;40.73;25.50;;;;;;;-0.97;86.15;95114.72;1776945;80;20996;-81
2021/12/10 06:34:45;;;;;;;37.50;23.45;;;;;;;-0.95;86.18;95107.73;1772188;80;21015;-80
2021/12/10 06:37:10;;;;;;;36.55;22.32;;;;;;;-0.96;86.05;95117.60;1748504;80;21055;-80
2021/12/10 06:39:36;;;;;;;17.73;12.68;;;;;;;-0.98;85.91;95116.91;1736954;80;21563;-81
2021/12/10 06:42:03;;;;;;;19.87;13.40;;;;;;;-1.00;85.97;95126.45;1750344;80;20960;-81
2021/12/10 06:44:28;;;;;;;13.15;8.50;;;;;;;-0.98;86.07;95127.11;1769644;80;21063;-81
2021/12/10 06:46:55;;;;;;;14.35;10.58;;;;;;;-0.97;86.05;95128.27;1778933;80;21055;-81
2021/12/10 06:49:21;;;;;;;12.90;9.83;;;;;;;-0.92;86.01;95134.21;1779446;80;21056;-81
2021/12/10 06:51:47;;;;;;;12.13;9.30;;;;;;;-0.87;86.08;95137.61;1780362;80;20972;-81
2021/12/10 06:54:14;;;;;;;13.80;8.83;;;;;;;-0.88;85.94;95143.18;1768818;80;21035;-80
2021/12/10 06:56:39;;;;;;;13.05;9.68;;;;;;;-0.85;85.95;95143.36;1779329;80;21343;-81
2021/12/10 06:59:07;;;;;;;14.00;9.00;;;;;;;-0.81;85.96;95146.78;1743032;81;21056;-81
2021/12/10 07:01:38;;;;;;;13.60;10.65;;;;;;;-0.78;85.90;95154.14;1757042;79;21399;-81
2021/12/10 07:04:05;;;;;;;13.43;9.53;;;;;;;-0.76;85.82;95153.53;1770387;80;20996;-81
2021/12/10 07:06:31;;;;;;;11.75;9.50;;;;;;;-0.72;85.78;95157.39;1780758;80;21042;-81
2021/12/10 07:08:59;;;;;;;12.90;8.83;;;;;;;-0.65;85.72;95161.47;1770186;80;21031;-81
2021/12/10 07:11:25;;;;;;;8.58;7.12;;;;;;;-0.61;85.58;95164.06;1781256;80;21047;-80
2021/12/10 07:13:55;;;;;;;9.35;7.55;;;;;;;-0.60;85.32;95165.66;1766260;80;21119;-81
2021/12/10 07:16:22;;;;;;;9.13;7.08;;;;;;;-0.55;85.33;95163.95;1756944;79;21426;-81
2021/12/10 07:18:48;;;;;;;9.20;6.85;;;;;;;-0.51;85.27;95158.88;1774461;80;21054;-81
2021/12/10 07:21:14;;;;;;;7.15;5.95;;;;;;;-0.51;85.13;95159.69;1777912;80;21019;-81
2021/12/10 07:23:42;;;;;;;7.70;5.55;;;;;;;-0.52;84.98;95152.98;1749353;79;21076;-80
2021/12/10 07:26:11;;;;;;;8.23;6.22;;;;;;;-0.52;84.86;95145.80;1749743;80;21426;-80
2021/12/10 07:28:37;;;;;;;7.58;6.75;;;;;;;-0.53;85.49;95137.81;1748660;80;21099;-80
2021/12/10 07:31:03;;;;;;;8.75;6.35;;;;;;;-0.53;84.78;95141.64;1775916;80;21134;-81
2021/12/10 07:33:29;;;;;;;6.55;5.72;;;;;;;-0.55;84.47;95144.34;1766174;79;21161;-81
2021/12/10 07:35:55;;;;;;;6.03;5.35;;;;;;;-0.54;84.40;95136.21;1769872;80;21137;-80
2021/12/10 07:38:21;;;;;;;5.90;5.40;;;;;;;-0.52;84.33;95139.42;1782187;80;21015;-81
2021/12/10 07:40:47;;;;;;;6.50;5.40;;;;;;;-0.54;84.09;95139.56;1781287;80;21059;-80
2021/12/10 07:43:13;;;;;;;5.53;4.72;;;;;;;-0.55;83.90;95135.41;1757202;81;21334;-82
2021/12/10 07:45:39;;;;;;;5.03;4.45;;;;;;;-0.55;83.78;95138.44;1781937;80;20952;-80
2021/12/10 07:48:08;;;;;;;5.15;4.65;;;;;;;-0.53;83.78;95149.30;1760787;80;21425;-81
2021/12/10 07:50:40;;;;;;;4.87;4.28;;;;;;;-0.57;83.49;95149.27;1770526;80;21066;-81
2021/12/10 07:53:06;;;;;;;5.10;4.58;;;;;;;-0.58;83.42;95146.38;1749946;80;21409;-81
2021/12/10 07:55:34;;;;;;;4.87;4.37;;;;;;;-0.59;83.33;95144.78;1760478;80;21046;-81
2021/12/10 07:58:01;;;;;;;6.78;5.30;;;;;;;-0.60;83.46;95143.98;1768851;80;21087;-80
2021/12/10 08:00:29;;;;;;;5.35;4.85;;;;;;;-0.62;83.53;95141.57;1751615;80;21438;-81
2021/12/10 08:02:55;;;;;;;7.70;6.15;;;;;;;-0.63;83.43;95147.63;1750160;79;21123;-81
2021/12/10 08:05:24;;;;;;;6.85;5.62;;;;;;;-0.62;83.39;95150.50;1753388;78;21454;-81
2021/12/10 08:07:53;;;;;;;7.70;5.67;;;;;;;-0.61;83.35;95152.58;1754958;80;21394;-81
2021/12/10 08:10:19;;;;;;;5.85;5.30;;;;;;;-0.63;83.14;95156.55;1766414;80;21023;-81
2021/12/10 08:12:45;;;;;;;5.75;5.08;;;;;;;-0.65;83.29;95159.72;1760530;80;20983;-81
2021/12/10 08:15:11;;;;;;;5.37;4.83;;;;;;;-0.68;83.04;95168.11;1775145;80;21102;-81
2021/12/10 08:17:37;;;;;;;5.05;4.12;;;;;;;-0.68;83.19;95165.55;1761531;80;21015;-81
2021/12/10 08:20:08;;;;;;;4.75;4.35;;;;;;;-0.66;82.78;95168.30;1781904;80;21071;-81
2021/12/10 08:22:33;;;;;;;5.53;4.42;;;;;;;-0.63;82.82;95169.78;1781290;79;21489;-81
2021/12/10 08:24:59;;;;;;;5.22;4.72;;;;;;;-0.59;82.84;95165.98;1780475;80;21060;-81
2021/12/10 08:27:25;;;;;;;4.60;4.20;;;;;;;-0.56;82.91;95168.25;1781657;80;21066;-81
2021/12/10 08:29:51;;;;;;;5.58;4.83;;;;;;;-0.55;82.65;95172.41;1761011;80;21064;-80
2021/12/10 08:32:20;;;;;;;5.47;4.97;;;;;;;-0.55;82.61;95169.86;1779010;80;20995;-81
2021/12/10 08:34:44;;;;;;;5.78;5.17;;;;;;;-0.54;82.50;95171.94;1780228;80;21477;-81
2021/12/10 08:37:10;;;;;;;5.70;4.20;;;;;;;-0.52;82.52;95171.31;1751291;80;21126;-80
2021/12/10 08:39:36;;;;;;;4.92;4.50;;;;;;;-0.50;82.64;95171.49;1769406;80;21111;-81
2021/12/10 08:42:03;;;;;;;4.37;3.98;;;;;;;-0.45;82.47;95175.72;1760185;80;21002;-81
2021/12/10 08:44:29;;;;;;;4.97;4.58;;;;;;;-0.42;82.16;95165.69;1776523;80;21059;-81
2021/12/10 08:46:55;;;;;;;3.85;3.37;;;;;;;-0.41;82.26;95168.57;1771242;80;21007;-81
2021/12/10 08:49:21;;;;;;;5.20;4.40;;;;;;;-0.41;82.03;95170.64;1773676;80;21050;-81
2021/12/10 08:51:51;;;;;;;4.42;4.03;;;;;;;-0.42;81.71;95175.89;1750062;80;20987;-81
2021/12/10 08:54:18;;;;;;;4.90;4.37;;;;;;;-0.42;82.08;95163.94;1773874;79;20999;-81
2021/12/10 08:56:45;;;;;;;4.80;4.40;;;;;;;-0.43;82.14;95167.44;1776169;80;20995;-81
2021/12/10 08:59:11;;;;;;;4.85;4.42;;;;;;;-0.42;82.25;95169.05;1776202;80;21043;-81
2021/12/10 09:01:42;;;;;;;4.70;4.12;;;;;;;-0.43;81.95;95165.36;1780911;80;21086;-81
2021/12/10 09:04:08;;;;;;;5.05;4.60;;;;;;;-0.43;81.86;95167.44;1766289;79;20987;-81
2021/12/10 09:06:37;;;;;;;5.90;4.70;;;;;;;-0.40;82.13;95169.70;1761144;80;21031;-81
2021/12/10 09:09:05;;;;;;;5.30;4.20;;;;;;;-0.40;81.87;95170.97;1767796;80;21047;-80
2021/12/10 09:11:31;;;;;;;5.05;4.55;;;;;;;-0.36;81.90;95169.73;1771712;80;21422;-81
2021/12/10 09:13:57;;;;;;;5.65;5.05;;;;;;;-0.28;81.98;95171.58;1780921;80;20999;-81
2021/12/10 09:16:27;;;;;;;7.28;5.92;;;;;;;-0.20;81.67;95164.45;1776196;80;21081;-80
2021/12/10 09:18:57;;;;;;;5.97;5.33;;;;;;;-0.09;81.69;95157.88;1780805;80;21047;-81
2021/12/10 09:21:23;;;;;;;5.42;4.65;;;;;;;0.01;81.64;95155.25;1778198;80;21074;-81
2021/12/10 09:23:50;;;;;;;4.92;4.17;;;;;;;0.04;81.50;95151.92;1765636;80;20968;-80
2021/12/10 09:26:19;;;;;;;5.22;4.70;;;;;;;0.03;81.52;95152.08;1764327;80;21063;-81
2021/12/10 09:28:45;;;;;;;5.42;4.72;;;;;;;0.02;81.32;95146.64;1781998;80;21594;-81
2021/12/10 09:31:12;;;;;;;5.62;4.80;;;;;;;0.04;81.09;95140.91;1781573;80;21159;-81
2021/12/10 09:33:38;;;;;;;6.05;5.47;;;;;;;0.02;80.93;95146.16;1774547;80;21018;-81
2021/12/10 09:36:05;;;;;;;11.33;7.22;;;;;;;0.06;80.96;95142.84;1768315;80;21098;-81
2021/12/10 09:38:31;;;;;;;6.50;4.80;;;;;;;0.13;81.18;95139.53;1749818;80;21086;-81
2021/12/10 09:41:02;;;;;;;5.58;4.97;;;;;;;0.22;80.85;95137.38;1755110;80;21081;-80
2021/12/10 09:43:30;;;;;;;6.00;5.40;;;;;;;0.26;80.48;95141.23;1776235;80;21370;-81
2021/12/10 09:45:55;;;;;;;5.22;4.72;;;;;;;0.38;80.59;95137.97;1766045;80;21031;-81
2021/12/10 09:48:22;;;;;;;5.80;4.97;;;;;;;0.48;80.68;95128.44;1755108;80;21405;-80
2021/12/10 09:50:58;;;;;;;23.62;11.20;;;;;;;0.52;80.13;95133.59;1760547;80;21130;-80
2021/12/10 09:53:27;;;;;;;10.00;7.03;;;;;;;0.55;80.19;95132.02;1758684;80;20988;-80
2021/12/10 09:55:53;;;;;;;5.20;4.62;;;;;;;0.61;80.15;95129.31;1776563;80;21068;-81
2021/12/10 09:58:19;;;;;;;6.22;4.85;;;;;;;0.67;79.96;95118.98;1781066;80;21406;-80
2021/12/10 10:00:50;;;;;;;5.60;5.08;;;;;;;0.66;79.50;95121.22;1771410;80;21050;-80
2021/12/10 10:03:18;;;;;;;5.33;4.83;;;;;;;0.60;79.33;95111.10;1759195;80;21043;-80
2021/12/10 10:05:45;;;;;;;5.60;4.95;;;;;;;0.54;79.44;95116.83;1765174;80;21050;-80
2021/12/10 10:08:21;;;;;;;5.00;4.50;;;;;;;0.46;79.61;95116.77;1766464;80;21076;-80
2021/12/10 10:10:50;;;;;;;5.60;4.90;;;;;;;0.45;79.43;95120.27;1767329;80;20999;-80
2021/12/10 10:13:24;;;;;;;5.55;4.72;;;;;;;0.45;79.64;95116.44;1780921;80;21022;-80
2021/12/10 10:15:51;;;;;;;5.55;4.75;;;;;;;0.48;79.49;95115.66;1767647;79;21068;-80
2021/12/10 10:18:20;;;;;;;5.25;4.75;;;;;;;0.56;79.59;95120.03;1764184;80;21095;-80
2021/12/10 10:20:49;;;;;;;5.45;4.65;;;;;;;0.66;79.41;95110.52;1766260;80;21147;-80
2021/12/10 10:23:16;;;;;;;5.80;4.97;;;;;;;0.72;79.18;95112.93;1772457;80;21080;-80
2021/12/10 10:25:45;;;;;;;5.17;4.67;;;;;;;0.77;78.90;95117.10;1761990;80;21512;-80
2021/12/10 10:28:13;;;;;;;6.15;5.58;;;;;;;0.81;79.14;95108.16;1740550;80;21019;-80
2021/12/10 10:30:54;;;;;;;5.47;4.67;;;;;;;0.81;78.86;95105.61;1741061;80;20983;-80
2021/12/10 10:33:17;;;;;;;6.12;5.30;;;;;;;0.82;78.64;95105.96;1748487;82;21028;-80
2021/12/10 10:35:49;;;;;;;6.87;5.50;;;;;;;0.78;78.73;95109.28;1744171;81;21370;-80
2021/12/10 10:38:16;;;;;;;11.53;6.30;;;;;;;0.76;79.02;95111.19;1750227;80;21023;-80
2021/12/10 10:40:52;;;;;;;8.65;5.53;;;;;;;0.79;78.91;95115.19;1751936;82;21023;-80
2021/12/10 10:43:18;;;;;;;6.33;5.08;;;;;;;0.80;79.30;95113.75;1751413;82;21112;-80
2021/12/10 10:45:45;;;;;;;6.78;5.83;;;;;;;0.87;79.73;95113.48;1742505;81;21780;-80
2021/12/10 10:48:12;;;;;;;5.47;4.97;;;;;;;0.93;79.83;95113.82;1751651;80;21422;-80
2021/12/10 10:50:43;;;;;;;6.08;4.90;;;;;;;0.94;79.62;95115.42;1752562;82;21130;-80
2021/12/10 10:53:11;;;;;;;5.33;4.83;;;;;;;0.90;79.49;95119.57;1722023;82;21450;-80
2021/12/10 10:55:44;;;;;;;7.67;6.15;;;;;;;0.93;79.59;95119.73;1744104;82;21057;-80
2021/12/10 10:58:14;;;;;;;;;;;;;;;0.94;79.07;95116.70;1748801;82;21075;-80
2021/12/10 11:00:58;;;;;;;6.00;4.78;;;;;;;0.99;79.62;95119.14;1749568;80;20096;-80
2021/12/10 11:03:22;;;;;;;6.12;5.47;;;;;;;1.03;79.96;95120.43;1725569;82;21040;-79
2021/12/10 11:05:56;;;;;;;6.92;5.65;;;;;;;1.05;79.66;95124.91;1726450;82;21023;-80
2021/12/10 11:08:31;;;;;;;6.87;5.90;;;;;;;1.09;79.31;95130.03;1751292;81;21326;-80
2021/12/10 11:11:12;;;;;;;7.78;6.40;;;;;;;1.13;79.33;95124.13;1739675;82;21526;-80
2021/12/10 11:13:38;;;;;;;8.15;6.35;;;;;;;1.17;79.12;95132.64;1735033;82;21067;-81
2021/12/10 11:16:11;;;;;;;8.05;5.62;;;;;;;1.20;78.97;95132.80;1742907;82;21007;-81
2021/12/10 11:18:52;;;;;;;9.60;6.50;;;;;;;1.27;79.00;95134.26;1745028;80;21012;-81
2021/12/10 11:21:49;;;;;;;8.38;7.30;;;;;;;1.32;78.25;95137.97;1747705;80;21046;-81
2021/12/10 11:24:24;;;;;;;6.92;6.10;;;;;;;1.32;77.80;95129.50;1729846;80;21172;-81
2021/12/10 11:27:04;;;;;;;7.10;6.25;;;;;;;1.35;78.39;95138.94;1729452;81;21012;-81
2021/12/10 11:29:45;;;;;;;8.05;6.22;;;;;;;1.39;78.14;95136.86;1737830;82;21451;-81
2021/12/10 11:32:36;;;;;;;24.77;11.10;;;;;;;1.44;78.25;95135.43;1766079;80;21008;-81
2021/12/10 11:35:27;;;;;;;8.38;6.80;;;;;;;1.53;78.55;95125.23;1756864;80;21365;-81
2021/12/10 11:38:14;;;;;;;13.03;9.33;;;;;;;1.59;78.91;95119.47;1774964;79;21007;-81